createdAt,value
2023-03-30T00:02:04.548Z,97156.28
2023-03-30T00:04:31.124Z,97151.56
2023-03-30T00:07:04.188Z,97142.63
2023-03-30T00:09:30.537Z,97127.31
2023-03-30T00:11:56.909Z,97112.59
2023-03-30T00:14:23.355Z,97106.47
2023-03-30T00:16:52.182Z,97094.09
2023-03-30T00:19:18.622Z,97079.28
2023-03-30T00:21:44.994Z,97070.09
2023-03-30T00:24:11.360Z,97063.72
2023-03-30T00:26:40.015Z,97059.72
2023-03-30T00:29:06.449Z,97070.78
2023-03-30T00:31:33.197Z,97067.84
2023-03-30T00:34:14.704Z,97067.84
2023-03-30T00:36:41.234Z,97077.63
2023-03-30T00:39:07.642Z,97079.63
2023-03-30T00:41:34.003Z,97079.13
2023-03-30T00:44:02.525Z,97078.78
2023-03-30T00:46:28.977Z,97071.16
2023-03-30T00:48:55.361Z,97078.66
2023-03-30T00:51:21.937Z,97102.88
2023-03-30T00:53:48.374Z,97079.25
2023-03-30T00:56:14.753Z,97092.69
2023-03-30T00:58:41.298Z,97087.72
2023-03-30T01:01:08.104Z,97106.03
2023-03-30T01:03:34.789Z,97123.38
2023-03-30T01:06:01.199Z,97135.38
2023-03-30T01:08:27.502Z,97157.91
2023-03-30T01:10:54.013Z,97135.81
2023-03-30T01:13:22.115Z,97134.00
2023-03-30T01:15:48.510Z,97156.00
2023-03-30T01:18:14.873Z,97134.28
2023-03-30T01:20:41.277Z,97131.06
2023-03-30T01:23:07.633Z,97106.19
2023-03-30T01:25:34.074Z,97086.19
2023-03-30T01:28:00.465Z,97073.53
2023-03-30T01:30:26.843Z,97073.16
2023-03-30T01:32:54.779Z,97067.34
2023-03-30T01:35:21.697Z,97075.22
2023-03-30T01:37:48.244Z,97071.50
2023-03-30T01:40:16.855Z,97058.59
2023-03-30T01:42:43.263Z,97067.56
2023-03-30T01:45:09.841Z,97067.84
2023-03-30T01:47:36.326Z,97070.03
2023-03-30T01:50:02.705Z,97069.75
2023-03-30T01:52:29.131Z,97069.28
2023-03-30T01:54:55.547Z,97061.91
2023-03-30T01:57:22.066Z,97067.47
2023-03-30T01:59:48.558Z,97063.75
2023-03-30T02:02:15.037Z,97043.41
2023-03-30T02:04:41.548Z,97049.72
2023-03-30T02:07:08.004Z,97042.22
2023-03-30T02:09:34.394Z,97036.22
2023-03-30T02:12:00.800Z,97029.84
2023-03-30T02:14:27.235Z,97039.03
2023-03-30T02:16:53.690Z,97028.06
2023-03-30T02:19:20.068Z,97036.91
2023-03-30T02:21:46.525Z,97024.28
2023-03-30T02:24:12.925Z,97015.31
2023-03-30T02:26:39.417Z,97001.31
2023-03-30T02:29:05.844Z,96997.69
2023-03-30T02:31:32.320Z,96998.72
2023-03-30T02:33:58.832Z,96996.72
2023-03-30T02:36:25.222Z,97000.22
2023-03-30T02:38:51.683Z,97007.53
2023-03-30T02:41:18.024Z,96997.19
2023-03-30T02:43:44.446Z,96996.59
2023-03-30T02:46:10.869Z,96994.03
2023-03-30T02:48:37.482Z,96989.31
2023-03-30T02:51:04.180Z,96968.75
2023-03-30T02:53:30.997Z,96969.75
2023-03-30T02:55:57.473Z,96982.97
2023-03-30T02:58:23.801Z,96990.53
2023-03-30T03:00:50.335Z,96979.31
2023-03-30T03:03:16.892Z,96965.44
2023-03-30T03:05:43.619Z,96953.53
2023-03-30T03:08:10.081Z,96954.28
2023-03-30T03:10:36.536Z,96959.94
2023-03-30T03:13:02.867Z,96967.22
2023-03-30T03:15:29.358Z,96965.34
2023-03-30T03:17:55.767Z,96972.63
2023-03-30T03:20:22.251Z,96976.53
2023-03-30T03:22:48.710Z,96964.03
2023-03-30T03:25:17.083Z,96957.81
2023-03-30T03:27:43.538Z,96957.91
2023-03-30T03:30:09.981Z,96956.66
2023-03-30T03:32:36.397Z,96944.28
2023-03-30T03:35:02.821Z,96956.03
2023-03-30T03:37:29.251Z,96952.63
2023-03-30T03:39:55.678Z,96934.59
2023-03-30T03:42:22.162Z,96958.03
2023-03-30T03:44:48.556Z,96942.94
2023-03-30T03:47:16.594Z,96941.66
2023-03-30T03:49:43.154Z,96950.03
2023-03-30T03:52:09.533Z,96965.47
2023-03-30T03:54:35.923Z,96959.56
2023-03-30T03:57:02.408Z,96962.41
2023-03-30T03:59:28.849Z,96968.38
2023-03-30T04:01:55.290Z,96976.63
2023-03-30T04:04:21.801Z,96990.28
2023-03-30T04:06:48.213Z,97012.69
2023-03-30T04:09:14.618Z,97021.03
2023-03-30T04:11:41.083Z,97025.97
2023-03-30T04:14:09.853Z,97058.69
2023-03-30T04:16:36.350Z,97024.47
2023-03-30T04:19:02.876Z,97011.50
2023-03-30T04:21:29.266Z,97029.72
2023-03-30T04:23:55.669Z,97052.91
2023-03-30T04:26:22.065Z,97014.81
2023-03-30T04:28:48.489Z,96987.47
2023-03-30T04:31:14.971Z,96959.13
2023-03-30T04:33:44.204Z,96996.19
2023-03-30T04:36:12.698Z,97003.50
2023-03-30T04:38:39.186Z,96986.75
2023-03-30T04:41:05.780Z,96982.88
2023-03-30T04:43:32.403Z,96959.56
2023-03-30T04:45:58.863Z,96935.78
2023-03-30T04:48:25.306Z,96944.97
2023-03-30T04:50:51.793Z,96946.63
2023-03-30T04:53:18.219Z,96953.44
2023-03-30T04:55:44.663Z,96941.66
2023-03-30T04:58:11.098Z,96926.34
2023-03-30T05:00:37.521Z,96921.91
2023-03-30T05:03:04.025Z,96919.75
2023-03-30T05:05:30.562Z,96916.00
2023-03-30T05:07:56.929Z,96885.38
2023-03-30T05:10:23.403Z,96861.72
2023-03-30T05:12:49.795Z,96846.88
2023-03-30T05:15:16.222Z,96832.88
2023-03-30T05:17:42.657Z,96822.97
2023-03-30T05:20:09.112Z,96825.09
2023-03-30T05:22:35.592Z,96842.94
2023-03-30T05:25:01.993Z,96863.41
2023-03-30T05:27:28.396Z,96888.44
2023-03-30T05:29:54.891Z,96930.56
2023-03-30T05:32:21.330Z,96980.31
2023-03-30T05:34:47.847Z,96980.69
2023-03-30T05:37:14.261Z,96947.38
2023-03-30T05:39:40.704Z,96883.94
2023-03-30T05:42:07.122Z,96859.31
2023-03-30T05:44:33.565Z,96847.31
2023-03-30T05:47:00.019Z,96840.59
2023-03-30T05:49:26.505Z,96845.94
2023-03-30T05:51:53.011Z,96845.16
2023-03-30T05:54:19.404Z,96881.97
2023-03-30T05:59:26.211Z,96817.34
2023-03-30T06:01:58.433Z,96785.59
2023-03-30T06:04:24.857Z,96763.88
2023-03-30T06:06:51.299Z,96799.06
2023-03-30T06:09:17.740Z,96830.84
2023-03-30T06:11:44.244Z,96843.78
2023-03-30T06:14:10.733Z,96868.88
2023-03-30T06:16:37.240Z,96975.69
2023-03-30T06:19:03.748Z,97024.78
2023-03-30T06:21:30.088Z,96969.94
2023-03-30T06:23:56.582Z,96998.16
2023-03-30T06:26:23.008Z,97027.13
2023-03-30T06:28:55.337Z,97061.28
2023-03-30T06:31:21.750Z,97093.53
2023-03-30T06:33:48.180Z,97139.50
2023-03-30T06:36:17.362Z,97170.56
2023-03-30T06:38:44.156Z,97130.72
2023-03-30T06:41:10.538Z,97123.06
2023-03-30T06:43:36.936Z,97113.06
2023-03-30T06:46:03.431Z,97084.09
2023-03-30T06:48:29.931Z,97065.28
2023-03-30T06:50:56.375Z,97055.75
2023-03-30T06:53:22.812Z,97015.13
2023-03-30T06:55:49.264Z,96993.91
2023-03-30T06:58:18.179Z,97014.94
2023-03-30T07:00:44.612Z,97056.44
2023-03-30T07:03:11.061Z,97089.75
2023-03-30T07:05:37.511Z,97092.09
2023-03-30T07:08:04.015Z,97079.41
2023-03-30T07:10:30.493Z,97072.94
2023-03-30T07:12:57.235Z,97067.50
2023-03-30T07:15:23.561Z,97065.38
2023-03-30T07:17:50.003Z,97081.75
2023-03-30T07:22:58.602Z,97075.59
2023-03-30T07:25:25.263Z,97064.41
2023-03-30T07:27:52.115Z,97064.72
2023-03-30T07:30:22.208Z,97066.56
2023-03-30T07:32:49.132Z,97067.00
2023-03-30T07:35:15.624Z,97087.25
2023-03-30T07:37:51.248Z,97094.34
2023-03-30T07:40:17.800Z,97104.13
2023-03-30T07:42:44.361Z,97110.50
2023-03-30T07:45:10.793Z,97104.25
2023-03-30T07:47:37.215Z,97094.50
2023-03-30T07:50:03.693Z,97090.94
2023-03-30T07:52:30.053Z,97099.75
2023-03-30T07:54:56.512Z,97094.34
2023-03-30T07:57:25.141Z,97096.69
2023-03-30T07:59:51.612Z,97115.84
2023-03-30T08:02:18.131Z,97126.84
2023-03-30T08:04:44.747Z,97122.25
2023-03-30T08:07:11.368Z,97115.72
2023-03-30T08:09:37.793Z,97148.47
2023-03-30T08:12:04.217Z,97163.94
2023-03-30T08:14:30.630Z,97172.31
2023-03-30T08:16:57.033Z,97176.63
2023-03-30T08:19:23.469Z,97187.72
2023-03-30T08:21:49.927Z,97197.28
2023-03-30T08:24:16.356Z,97196.72
2023-03-30T08:26:42.849Z,97186.44
2023-03-30T08:29:09.334Z,97169.59
2023-03-30T08:31:35.789Z,97162.75
2023-03-30T08:34:02.343Z,97160.28
2023-03-30T08:36:28.945Z,97166.56
2023-03-30T08:38:55.489Z,97169.50
2023-03-30T08:41:22.126Z,97188.81
2023-03-30T08:43:48.587Z,97204.38
2023-03-30T08:46:15.070Z,97208.00
2023-03-30T08:48:41.499Z,97194.81
2023-03-30T08:51:07.949Z,97198.25
2023-03-30T08:53:34.629Z,97204.13
2023-03-30T08:56:01.107Z,97206.69
2023-03-30T08:58:27.551Z,97220.50
2023-03-30T09:00:54.000Z,97216.97
2023-03-30T09:03:20.496Z,97223.69
2023-03-30T09:05:46.924Z,97215.00
2023-03-30T09:08:13.339Z,97235.00
2023-03-30T09:10:39.780Z,97250.06
2023-03-30T09:13:06.176Z,97253.63
2023-03-30T09:15:32.695Z,97254.44
2023-03-30T09:17:59.107Z,97246.47
2023-03-30T09:20:25.544Z,97250.22
2023-03-30T09:22:51.989Z,97260.91
2023-03-30T09:25:18.421Z,97268.47
2023-03-30T09:27:44.819Z,97261.13
2023-03-30T09:30:11.321Z,97260.81
2023-03-30T09:32:37.819Z,97271.03
2023-03-30T09:35:04.365Z,97277.75
2023-03-30T09:37:30.854Z,97270.69
2023-03-30T09:39:57.304Z,97258.19
2023-03-30T09:42:23.763Z,97235.69
2023-03-30T09:44:50.251Z,97242.97
2023-03-30T09:47:22.348Z,97251.34
2023-03-30T09:49:48.871Z,97251.56
2023-03-30T09:52:15.326Z,97242.59
2023-03-30T09:54:41.788Z,97238.84
2023-03-30T09:57:08.317Z,97239.66
2023-03-30T09:59:34.784Z,97259.31
2023-03-30T10:02:01.493Z,97264.50
2023-03-30T10:04:28.868Z,97268.84
2023-03-30T10:06:55.364Z,97281.31
2023-03-30T10:09:21.847Z,97288.97
2023-03-30T10:11:48.335Z,97281.91
2023-03-30T10:14:14.750Z,97297.50
2023-03-30T10:16:41.164Z,97295.16
2023-03-30T10:19:07.658Z,97296.34
2023-03-30T10:21:34.100Z,97303.06
2023-03-30T10:24:00.565Z,97287.41
2023-03-30T10:26:26.982Z,97283.91
2023-03-30T10:28:53.452Z,97273.91
2023-03-30T10:31:19.966Z,97268.97
2023-03-30T10:33:46.489Z,97272.28
2023-03-30T10:36:12.931Z,97278.44
2023-03-30T10:38:39.358Z,97271.25
2023-03-30T10:41:05.800Z,97270.94
2023-03-30T10:43:39.606Z,97274.44
2023-03-30T10:46:16.732Z,97288.22
2023-03-30T10:48:45.663Z,97283.75
2023-03-30T10:51:12.156Z,97285.06
2023-03-30T10:53:38.713Z,97281.28
2023-03-30T10:56:05.325Z,97281.41
2023-03-30T10:58:32.002Z,97269.66
2023-03-30T11:00:58.476Z,97279.31
2023-03-30T11:03:25.026Z,97282.41
2023-03-30T11:05:51.613Z,97269.31
2023-03-30T11:08:18.098Z,97249.50
2023-03-30T11:10:44.539Z,97248.44
2023-03-30T11:13:13.589Z,97260.47
2023-03-30T11:15:40.124Z,97258.97
2023-03-30T11:18:09.533Z,97253.28
2023-03-30T11:20:36.056Z,97253.78
2023-03-30T11:23:02.488Z,97253.50
2023-03-30T11:25:28.940Z,97258.34
2023-03-30T11:30:35.821Z,97267.19
2023-03-30T11:33:02.355Z,97278.16
2023-03-30T11:35:28.821Z,97293.34
2023-03-30T11:37:55.357Z,97304.72
2023-03-30T11:40:22.703Z,97301.06
2023-03-30T11:42:50.155Z,97306.50
2023-03-30T11:45:16.561Z,97312.75
2023-03-30T11:47:43.062Z,97314.59
2023-03-30T11:50:09.512Z,97315.91
2023-03-30T11:52:35.932Z,97311.75
2023-03-30T11:55:04.106Z,97303.69
2023-03-30T11:57:30.962Z,97297.31
2023-03-30T11:59:57.522Z,97293.81
2023-03-30T12:02:24.089Z,97297.72
2023-03-30T12:04:50.608Z,97292.78
2023-03-30T12:07:17.070Z,97284.84
2023-03-30T12:09:43.490Z,97280.88
2023-03-30T12:12:09.972Z,97276.97
2023-03-30T12:14:36.440Z,97266.59
2023-03-30T12:17:02.874Z,97258.81
2023-03-30T12:19:29.306Z,97244.66
2023-03-30T12:21:55.762Z,97238.13
2023-03-30T12:27:05.762Z,97241.09
2023-03-30T12:30:01.004Z,97240.31
2023-03-30T12:32:19.301Z,97228.97
2023-03-30T12:34:45.764Z,97230.03
2023-03-30T12:37:12.205Z,97233.94
2023-03-30T12:39:38.673Z,97245.03
2023-03-30T12:42:05.154Z,97250.91
2023-03-30T12:44:40.224Z,97248.78
2023-03-30T12:47:07.461Z,97249.88
2023-03-30T12:49:34.715Z,97253.47
2023-03-30T12:52:05.091Z,97256.44
2023-03-30T12:54:31.490Z,97269.16
2023-03-30T12:56:57.914Z,97284.00
2023-03-30T12:59:24.384Z,97288.19
2023-03-30T13:01:50.791Z,97294.53
2023-03-30T13:04:17.368Z,97307.28
2023-03-30T13:09:24.214Z,97293.34
2023-03-30T13:11:50.673Z,97288.00
2023-03-30T13:14:17.114Z,97285.09
2023-03-30T13:16:43.626Z,97279.38
2023-03-30T13:19:10.076Z,97285.84
2023-03-30T13:21:36.520Z,97289.03
2023-03-30T13:24:02.999Z,97279.72
2023-03-30T13:26:35.057Z,97269.13
2023-03-30T13:29:02.019Z,97251.59
2023-03-30T13:31:28.654Z,97247.69
2023-03-30T13:33:55.185Z,97250.25
2023-03-30T13:36:21.638Z,97247.94
2023-03-30T13:38:48.115Z,97236.16
2023-03-30T13:41:14.560Z,97240.66
2023-03-30T13:43:41.060Z,97250.63
2023-03-30T13:46:16.495Z,97239.22
2023-03-30T13:48:44.115Z,97238.91
2023-03-30T13:51:10.581Z,97247.84
2023-03-30T13:53:37.053Z,97250.31
2023-03-30T13:56:03.654Z,97244.34
2023-03-30T13:58:30.213Z,97228.19
2023-03-30T14:00:56.733Z,97230.19
2023-03-30T14:03:23.167Z,97229.72
2023-03-30T14:05:49.580Z,97210.59
2023-03-30T14:08:16.025Z,97218.75
2023-03-30T14:10:42.416Z,97222.41
2023-03-30T14:13:08.865Z,97212.59
2023-03-30T14:15:35.245Z,97214.59
2023-03-30T14:18:08.901Z,97210.19
2023-03-30T14:20:35.360Z,97211.09
2023-03-30T14:23:04.203Z,97203.44
2023-03-30T14:25:30.611Z,97209.81
2023-03-30T14:27:57.055Z,97193.53
2023-03-30T14:30:23.446Z,97188.78
2023-03-30T14:32:50.179Z,97181.84
2023-03-30T14:35:16.704Z,97182.88
2023-03-30T14:37:45.285Z,97180.22
2023-03-30T14:40:16.852Z,97184.69
2023-03-30T14:42:44.142Z,97192.25
2023-03-30T14:45:12.727Z,97175.78
2023-03-30T14:47:39.172Z,97176.94
2023-03-30T14:50:05.732Z,97178.41
2023-03-30T14:52:32.154Z,97172.72
2023-03-30T14:55:07.382Z,97170.00
2023-03-30T14:57:36.441Z,97175.19
2023-03-30T15:00:02.848Z,97179.25
2023-03-30T15:02:29.336Z,97167.53
2023-03-30T15:04:55.850Z,97164.91
2023-03-30T15:07:22.242Z,97160.94
2023-03-30T15:09:48.689Z,97158.56
2023-03-30T15:12:15.090Z,97164.50
2023-03-30T15:14:41.495Z,97153.13
2023-03-30T15:17:07.976Z,97166.13
2023-03-30T15:19:34.435Z,97158.56
2023-03-30T15:22:00.898Z,97172.56
2023-03-30T15:24:27.309Z,97159.56
2023-03-30T15:26:53.693Z,97145.25
2023-03-30T15:29:20.153Z,97157.56
2023-03-30T15:31:46.614Z,97155.75
2023-03-30T15:34:13.055Z,97155.44
2023-03-30T15:36:39.636Z,97152.63
2023-03-30T15:39:06.072Z,97150.06
2023-03-30T15:41:32.511Z,97144.97
2023-03-30T15:43:58.959Z,97139.28
2023-03-30T15:46:25.525Z,97140.53
2023-03-30T15:48:52.090Z,97136.75
2023-03-30T15:51:18.563Z,97126.22
2023-03-30T15:53:45.029Z,97123.75
2023-03-30T15:56:11.500Z,97113.44
2023-03-30T15:58:37.990Z,97112.69
2023-03-30T16:01:04.935Z,97106.53
2023-03-30T16:03:31.540Z,97096.47
2023-03-30T16:05:58.064Z,97093.75
2023-03-30T16:08:24.542Z,97092.75
2023-03-30T16:10:51.047Z,97091.84
2023-03-30T16:13:17.408Z,97090.88
2023-03-30T16:15:43.898Z,97083.00
2023-03-30T16:18:10.482Z,97096.22
2023-03-30T16:20:36.963Z,97083.50
2023-03-30T16:23:03.484Z,97085.16
2023-03-30T16:25:44.755Z,97078.06
2023-03-30T16:28:11.875Z,97069.84
2023-03-30T16:30:38.431Z,97057.34
2023-03-30T16:33:04.966Z,97057.03
2023-03-30T16:35:31.659Z,97053.16
2023-03-30T16:37:58.180Z,97042.94
2023-03-30T16:40:24.855Z,97029.69
2023-03-30T16:42:51.386Z,97028.03
2023-03-30T16:45:17.921Z,97036.84
2023-03-30T16:47:44.385Z,97036.00
2023-03-30T16:50:11.190Z,97038.09
2023-03-30T16:52:37.836Z,97035.69
2023-03-30T16:55:04.591Z,97036.63
2023-03-30T16:57:31.185Z,97034.72
2023-03-30T16:59:57.734Z,97042.41
2023-03-30T17:02:24.222Z,97027.78
2023-03-30T17:04:50.767Z,97021.13
2023-03-30T17:07:17.291Z,97039.03
2023-03-30T17:09:43.724Z,97044.94
2023-03-30T17:12:10.220Z,97044.81
2023-03-30T17:14:36.682Z,97047.81
2023-03-30T17:17:03.147Z,97046.47
2023-03-30T17:19:29.737Z,97034.69
2023-03-30T17:21:56.278Z,97026.88
2023-03-30T17:24:22.761Z,97029.44
2023-03-30T17:26:49.247Z,97027.44
2023-03-30T17:29:15.633Z,97030.47
2023-03-30T17:31:42.091Z,97036.94
2023-03-30T17:34:08.502Z,97035.44
2023-03-30T17:36:35.055Z,97035.44
2023-03-30T17:39:01.620Z,97040.56
2023-03-30T17:41:28.001Z,97045.34
2023-03-30T17:43:54.454Z,97040.81
2023-03-30T17:46:20.932Z,97046.16
2023-03-30T17:48:47.437Z,97052.88
2023-03-30T17:53:54.213Z,97054.81
2023-03-30T17:56:20.642Z,97050.06
2023-03-30T17:58:47.120Z,97043.53
2023-03-30T18:01:13.697Z,97032.63
2023-03-30T18:06:20.880Z,97027.91
2023-03-30T18:08:47.536Z,97024.28
2023-03-30T18:11:14.070Z,97023.59
2023-03-30T18:13:40.529Z,97034.81
2023-03-30T18:16:07.001Z,97043.72
2023-03-30T18:18:33.577Z,97030.47
2023-03-30T18:21:00.030Z,97029.41
2023-03-30T18:23:26.506Z,97035.81
2023-03-30T18:25:52.920Z,97033.44
2023-03-30T18:28:19.609Z,97046.06
2023-03-30T18:30:46.052Z,97050.44
2023-03-30T18:33:19.572Z,97060.00
2023-03-30T18:35:46.269Z,97050.44
2023-03-30T18:38:12.795Z,97053.16
2023-03-30T18:40:39.191Z,97058.31
2023-03-30T18:43:05.573Z,97050.41
2023-03-30T18:45:32.769Z,97060.53
2023-03-30T18:47:59.278Z,97056.56
2023-03-30T18:50:25.612Z,97040.72
2023-03-30T18:52:51.935Z,97043.19
2023-03-30T18:55:18.357Z,97040.59
2023-03-30T18:57:44.882Z,97052.09
2023-03-30T19:00:11.323Z,97066.50
2023-03-30T19:02:38.784Z,97067.91
2023-03-30T19:05:05.312Z,97064.34
2023-03-30T19:07:31.794Z,97051.03
2023-03-30T19:09:59.878Z,97047.75
2023-03-30T19:12:26.349Z,97027.78
2023-03-30T19:14:52.881Z,97021.81
2023-03-30T19:17:19.297Z,97025.47
2023-03-30T19:19:45.716Z,97021.13
2023-03-30T19:22:12.241Z,97021.94
2023-03-30T19:24:39.850Z,97025.81
2023-03-30T19:27:06.302Z,97035.13
2023-03-30T19:29:34.928Z,97047.84
2023-03-30T19:32:01.297Z,97053.19
2023-03-30T19:34:27.762Z,97050.56
2023-03-30T19:36:54.433Z,97035.63
2023-03-30T19:39:20.836Z,97034.53
2023-03-30T19:41:47.365Z,97013.56
2023-03-30T19:44:14.184Z,97012.41
2023-03-30T19:46:40.642Z,97010.28
2023-03-30T19:49:09.139Z,96998.94
2023-03-30T19:51:35.609Z,96998.69
2023-03-30T19:54:02.090Z,96995.63
2023-03-30T19:56:28.582Z,96982.31
2023-03-30T19:58:54.943Z,96971.00
2023-03-30T20:01:22.651Z,96966.47
2023-03-30T20:03:49.171Z,96967.06
2023-03-30T20:06:15.610Z,96958.50
2023-03-30T20:08:42.441Z,96960.72
2023-03-30T20:11:08.937Z,96955.75
2023-03-30T20:13:35.329Z,96966.00
2023-03-30T20:16:01.786Z,96970.47
2023-03-30T20:18:28.175Z,96971.44
2023-03-30T20:20:54.704Z,96967.78
2023-03-30T20:23:21.075Z,96966.69
2023-03-30T20:25:47.475Z,96971.38
2023-03-30T20:28:14.265Z,96970.03
2023-03-30T20:30:40.703Z,96971.56
2023-03-30T20:33:08.421Z,96970.53
2023-03-30T20:35:35.311Z,96969.16
2023-03-30T20:38:01.741Z,96964.19
2023-03-30T20:40:33.641Z,96959.13
2023-03-30T20:43:00.179Z,96948.78
2023-03-30T20:45:26.659Z,96955.81
2023-03-30T20:47:53.276Z,96952.53
2023-03-30T20:50:19.708Z,96943.66
2023-03-30T20:52:46.202Z,96942.72
2023-03-30T20:55:12.542Z,96940.81
2023-03-30T20:57:39.052Z,96942.06
2023-03-30T21:00:05.424Z,96942.50
2023-03-30T21:02:31.961Z,96950.31
2023-03-30T21:04:58.735Z,96945.16
2023-03-30T21:07:25.976Z,96934.44
2023-03-30T21:09:55.740Z,96926.78
2023-03-30T21:12:22.232Z,96916.66
2023-03-30T21:14:49.521Z,96906.88
2023-03-30T21:17:15.907Z,96910.66
2023-03-30T21:19:42.413Z,96907.88
2023-03-30T21:22:08.800Z,96904.06
2023-03-30T21:24:35.225Z,96895.38
2023-03-30T21:27:01.806Z,96895.63
2023-03-30T21:29:28.186Z,96902.81
2023-03-30T21:31:54.799Z,96886.91
2023-03-30T21:34:21.250Z,96875.00
2023-03-30T21:36:47.866Z,96876.91
2023-03-30T21:39:14.518Z,96870.88
2023-03-30T21:41:41.000Z,96871.97
2023-03-30T21:44:07.484Z,96865.47
2023-03-30T21:46:34.063Z,96862.75
2023-03-30T21:49:00.564Z,96862.19
2023-03-30T21:51:27.008Z,96859.16
2023-03-30T21:53:53.579Z,96860.13
2023-03-30T21:56:23.741Z,96848.41
2023-03-30T21:58:50.150Z,96828.38
2023-03-30T22:01:16.597Z,96830.91
2023-03-30T22:03:43.166Z,96836.66
2023-03-30T22:06:09.733Z,96844.16
2023-03-30T22:08:36.154Z,96851.56
2023-03-30T22:11:04.636Z,96857.78
2023-03-30T22:13:31.093Z,96852.13
2023-03-30T22:15:57.580Z,96852.72
2023-03-30T22:18:24.045Z,96855.75
2023-03-30T22:20:50.434Z,96857.75
2023-03-30T22:23:16.817Z,96852.56
2023-03-30T22:25:43.234Z,96859.50
2023-03-30T22:28:09.673Z,96865.03
2023-03-30T22:30:36.149Z,96869.63
2023-03-30T22:33:02.712Z,96863.63
2023-03-30T22:35:29.261Z,96850.56
2023-03-30T22:37:55.665Z,96840.63
2023-03-30T22:40:22.083Z,96850.03
2023-03-30T22:42:48.452Z,96835.41
2023-03-30T22:45:14.856Z,96847.25
2023-03-30T22:47:41.271Z,96863.81
2023-03-30T22:50:07.921Z,96866.28
2023-03-30T22:52:34.420Z,96855.81
2023-03-30T22:55:00.914Z,96804.84
2023-03-30T22:57:27.463Z,96764.63
2023-03-30T22:59:55.299Z,96747.56
2023-03-30T23:02:21.834Z,96711.38
2023-03-30T23:04:48.349Z,96699.75
2023-03-30T23:07:14.792Z,96710.47
2023-03-30T23:09:41.176Z,96724.69
2023-03-30T23:12:07.553Z,96751.34
2023-03-30T23:14:33.986Z,96775.88
2023-03-30T23:17:00.477Z,96786.47
2023-03-30T23:19:26.936Z,96799.63
2023-03-30T23:21:53.342Z,96779.81
2023-03-30T23:24:19.780Z,96761.78
2023-03-30T23:26:46.235Z,96752.66
2023-03-30T23:29:12.647Z,96755.06
2023-03-30T23:31:39.034Z,96741.41
2023-03-30T23:34:05.391Z,96746.84
2023-03-30T23:36:31.740Z,96747.28
2023-03-30T23:38:58.117Z,96755.03
2023-03-30T23:41:24.545Z,96762.91
2023-03-30T23:43:50.910Z,96760.41
2023-03-30T23:46:17.408Z,96768.44
2023-03-30T23:48:43.821Z,96758.97
2023-03-30T23:51:10.237Z,96767.34
2023-03-30T23:53:36.632Z,96763.81
2023-03-30T23:56:03.248Z,96776.06
2023-03-30T23:58:29.826Z,96768.50
